Time;durP1;ratioP1;P1;durP2;ratioP2;P2;SDS_P1;SDS_P2;PMS_P1;PMS_P2;Temp;Humidity;BMP_temperature;BMP_pressure;BME280_temperature;BME280_humidity;BME280_pressure;Samples;Min_cycle;Max_cycle;Signal;HPM_P1;HPM_P2
2021/11/30 00:01:28;;;;;;;5.40;3.58;;;1.10;99.90;;;;;;5022814;28;20026;-83
2021/11/30 00:03:55;;;;;;;8.10;3.83;;;1.10;99.90;;;;;;5003311;28;20117;-84
2021/11/30 00:06:21;;;;;;;5.47;4.07;;;1.10;99.90;;;;;;5001566;28;20033;-84
2021/11/30 00:08:48;;;;;;;6.20;3.72;;;1.10;99.90;;;;;;5002304;28;20027;-84
2021/11/30 00:11:14;;;;;;;5.63;3.10;;;1.10;99.90;;;;;;5003526;28;20046;-84
2021/11/30 00:13:41;;;;;;;4.60;3.10;;;1.10;99.90;;;;;;5003691;28;20034;-84
2021/11/30 00:16:07;;;;;;;4.18;3.10;;;1.10;99.90;;;;;;5007101;28;20022;-84
2021/11/30 00:18:34;;;;;;;5.57;3.20;;;1.10;99.90;;;;;;4995047;28;20026;-83
2021/11/30 00:21:02;;;;;;;6.10;3.00;;;1.10;99.90;;;;;;5019035;28;20025;-84
2021/11/30 00:23:28;;;;;;;3.85;2.80;;;1.10;99.90;;;;;;4995096;28;20027;-84
2021/11/30 00:25:54;;;;;;;3.58;2.60;;;1.00;99.90;;;;;;5013001;28;20101;-84
2021/11/30 00:28:20;;;;;;;3.90;2.83;;;1.00;99.90;;;;;;5003276;28;20034;-83
2021/11/30 00:30:47;;;;;;;4.88;3.10;;;1.00;99.90;;;;;;5019322;28;20026;-84
2021/11/30 00:33:13;;;;;;;4.78;3.15;;;1.00;99.90;;;;;;5000057;28;20030;-84
2021/11/30 00:35:38;;;;;;;4.13;2.40;;;1.00;99.90;;;;;;5005771;28;20494;-85
2021/11/30 00:38:05;;;;;;;4.97;2.80;;;1.00;99.90;;;;;;5004531;28;20291;-84
2021/11/30 00:40:33;;;;;;;4.03;2.60;;;1.00;99.90;;;;;;5007821;28;20046;-84
2021/11/30 00:43:00;;;;;;;4.90;2.60;;;1.00;99.90;;;;;;5022483;28;20022;-83
2021/11/30 00:45:35;;;;;;;2.90;2.42;;;1.10;99.90;;;;;;5032622;28;20002;-84
2021/11/30 00:48:07;;;;;;;3.78;2.30;;;1.00;99.90;;;;;;5037526;28;20030;-84
2021/11/30 00:50:34;;;;;;;3.03;2.47;;;1.10;99.90;;;;;;5033098;28;20033;-84
2021/11/30 00:53:00;;;;;;;3.15;2.28;;;1.00;99.90;;;;;;5011210;28;20035;-83
2021/11/30 00:55:26;;;;;;;5.40;2.53;;;1.00;99.90;;;;;;5022912;28;20038;-84
2021/11/30 00:57:51;;;;;;;2.53;2.10;;;1.00;99.90;;;;;;5014870;28;20049;-84
2021/11/30 01:00:19;;;;;;;2.47;1.85;;;1.00;99.90;;;;;;5009892;28;20026;-84
2021/11/30 01:02:51;;;;;;;3.63;2.70;;;1.00;99.90;;;;;;5010048;28;20030;-84
2021/11/30 01:05:17;;;;;;;3.70;2.20;;;0.90;99.90;;;;;;4992193;28;20325;-84
2021/11/30 01:07:43;;;;;;;5.70;2.35;;;1.00;99.90;;;;;;5006884;28;20050;-83
2021/11/30 01:10:12;;;;;;;4.68;2.10;;;1.00;99.90;;;;;;5004696;28;20027;-84
2021/11/30 01:12:38;;;;;;;5.15;2.67;;;1.00;99.90;;;;;;5002125;28;20031;-84
2021/11/30 01:15:08;;;;;;;4.57;2.90;;;1.00;99.90;;;;;;5003778;28;20027;-84
2021/11/30 01:17:34;;;;;;;3.78;2.65;;;1.00;99.90;;;;;;5002828;28;20033;-83
2021/11/30 01:20:00;;;;;;;5.38;3.20;;;0.90;99.90;;;;;;5001832;28;20022;-83
2021/11/30 01:22:26;;;;;;;5.28;2.47;;;0.90;99.90;;;;;;5001196;28;20045;-84
2021/11/30 01:24:52;;;;;;;3.80;3.00;;;0.90;99.90;;;;;;5004602;28;20487;-83
2021/11/30 01:27:18;;;;;;;3.60;2.40;;;0.80;99.90;;;;;;5021873;28;20061;-84
2021/11/30 01:29:44;;;;;;;4.53;2.38;;;0.80;99.90;;;;;;5021611;28;20029;-84
2021/11/30 01:32:10;;;;;;;3.67;2.50;;;0.90;99.90;;;;;;5020894;28;20367;-84
2021/11/30 01:34:35;;;;;;;3.40;2.60;;;0.90;99.90;;;;;;5020783;28;20030;-85
2021/11/30 01:37:01;;;;;;;3.30;2.60;;;0.90;99.90;;;;;;5021198;28;20029;-84
2021/11/30 01:39:27;;;;;;;6.03;3.53;;;0.90;99.90;;;;;;5004301;28;20022;-84
2021/11/30 01:41:54;;;;;;;4.13;2.50;;;1.00;99.90;;;;;;5009253;28;20023;-84
2021/11/30 01:44:35;;;;;;;3.10;2.20;;;1.00;99.90;;;;;;5002222;28;20023;-84
2021/11/30 01:49:34;;;;;;;3.47;2.08;;;1.10;99.90;;;;;;4998330;28;20022;-82
2021/11/30 01:52:01;;;;;;;2.58;2.00;;;1.00;99.90;;;;;;5012772;28;20049;-82
2021/11/30 01:54:27;;;;;;;3.53;2.28;;;1.00;99.90;;;;;;5020100;28;20026;-83
2021/11/30 01:56:53;;;;;;;4.95;2.10;;;1.10;99.90;;;;;;5013136;28;20029;-84
2021/11/30 01:59:18;;;;;;;2.50;2.10;;;1.10;99.90;;;;;;5020560;28;20464;-84
2021/11/30 02:01:44;;;;;;;2.90;1.90;;;1.00;99.90;;;;;;5027737;28;20038;-82
2021/11/30 02:04:10;;;;;;;2.13;1.60;;;1.00;99.90;;;;;;5018024;28;20041;-83
2021/11/30 02:06:36;;;;;;;1.90;1.70;;;1.00;99.90;;;;;;5030419;28;20048;-83
2021/11/30 02:09:03;;;;;;;4.38;1.75;;;1.00;99.90;;;;;;5004165;28;20030;-83
2021/11/30 02:11:29;;;;;;;2.80;1.80;;;1.10;99.90;;;;;;5020430;28;20033;-83
2021/11/30 02:13:55;;;;;;;2.47;1.55;;;1.10;99.90;;;;;;5001092;28;20033;-83
2021/11/30 02:16:21;;;;;;;4.65;2.00;;;1.10;99.90;;;;;;5021238;28;20061;-83
2021/11/30 02:18:48;;;;;;;1.60;1.50;;;1.20;99.90;;;;;;5022341;28;20030;-84
2021/11/30 02:21:16;;;;;;;3.03;1.80;;;1.20;99.90;;;;;;5022136;28;20037;-84
2021/11/30 02:23:47;;;;;;;5.40;2.05;;;1.10;99.90;;;;;;4995721;28;20138;-84
2021/11/30 02:26:14;;;;;;;2.30;1.85;;;1.10;99.90;;;;;;4989415;28;20452;-84
2021/11/30 02:28:44;;;;;;;3.42;1.67;;;1.10;99.90;;;;;;5022537;28;20056;-83
2021/11/30 02:31:16;;;;;;;3.28;1.77;;;1.10;99.90;;;;;;5008314;28;20029;-84
2021/11/30 02:33:42;;;;;;;2.78;2.20;;;1.10;99.90;;;;;;5019515;28;20281;-84
2021/11/30 02:39:16;;;;;;;2.13;1.55;;;1.00;99.90;;;;;;4961060;29;20493;-84
2021/11/30 02:41:44;;;;;;;2.22;1.65;;;1.00;99.90;;;;;;4997724;28;20034;-83
2021/11/30 02:44:15;;;;;;;2.80;1.52;;;1.00;99.90;;;;;;5005508;28;20029;-83
2021/11/30 02:46:41;;;;;;;1.95;1.58;;;1.10;99.90;;;;;;5003087;28;20081;-84
2021/11/30 02:49:12;;;;;;;2.95;1.70;;;1.10;99.90;;;;;;5003894;28;20026;-84
2021/11/30 02:51:41;;;;;;;3.38;1.60;;;1.10;99.90;;;;;;5005850;28;20022;-84
2021/11/30 02:54:11;;;;;;;2.03;1.50;;;1.10;99.90;;;;;;5006654;28;20546;-84
2021/11/30 02:56:47;;;;;;;3.00;1.70;;;1.10;99.90;;;;;;5014270;28;20018;-84
2021/11/30 02:59:12;;;;;;;3.63;1.60;;;1.20;99.90;;;;;;5005975;28;20027;-83
2021/11/30 03:01:41;;;;;;;1.65;1.33;;;1.20;99.90;;;;;;5005064;28;20078;-83
2021/11/30 03:04:12;;;;;;;2.13;1.38;;;1.20;99.90;;;;;;5006237;28;20037;-82
2021/11/30 03:06:40;;;;;;;3.05;1.73;;;1.20;99.90;;;;;;4987798;28;20045;-84
2021/11/30 03:09:07;;;;;;;1.45;1.35;;;1.20;99.90;;;;;;5005694;28;20088;-85
2021/11/30 03:11:33;;;;;;;1.85;1.63;;;1.20;99.90;;;;;;5019796;23;20052;-81
2021/11/30 03:13:59;;;;;;;2.95;1.40;;;1.20;99.90;;;;;;5011190;28;20030;-80
2021/11/30 03:16:25;;;;;;;1.20;1.10;;;1.20;99.90;;;;;;5002858;28;20163;-79
2021/11/30 03:18:50;;;;;;;1.83;1.38;;;1.10;99.90;;;;;;4966410;28;20031;-79
2021/11/30 03:21:16;;;;;;;1.73;1.35;;;1.20;99.90;;;;;;4985657;28;20086;-79
2021/11/30 03:23:42;;;;;;;1.55;1.35;;;1.20;99.90;;;;;;4992869;28;20046;-80
2021/11/30 03:26:09;;;;;;;2.00;1.80;;;1.20;99.90;;;;;;5013906;28;20053;-80
2021/11/30 03:28:34;;;;;;;2.90;1.63;;;1.20;99.90;;;;;;5033771;28;20026;-81
2021/11/30 03:31:06;;;;;;;2.10;1.33;;;1.30;99.90;;;;;;5019226;28;20076;-80
2021/11/30 03:36:18;;;;;;;2.85;1.73;;;1.30;99.90;;;;;;5005552;28;20304;-80
2021/11/30 03:38:44;;;;;;;2.47;1.80;;;1.40;99.90;;;;;;4994561;28;20097;-80
2021/11/30 03:41:11;;;;;;;4.13;1.60;;;1.30;99.90;;;;;;5011197;28;20031;-81
2021/11/30 03:43:37;;;;;;;2.53;1.48;;;1.40;99.90;;;;;;5003521;28;20026;-81
2021/11/30 03:46:03;;;;;;;2.22;1.55;;;1.30;99.90;;;;;;4985205;28;20045;-81
2021/11/30 03:48:30;;;;;;;1.33;1.23;;;1.30;99.90;;;;;;5002780;28;20034;-80
2021/11/30 03:50:56;;;;;;;3.17;1.50;;;1.30;99.90;;;;;;5003167;28;20046;-81
2021/11/30 03:53:21;;;;;;;4.28;1.65;;;1.30;99.90;;;;;;5001842;28;20048;-80
2021/11/30 03:55:47;;;;;;;3.38;1.63;;;1.30;99.90;;;;;;5000306;28;20036;-80
2021/11/30 03:58:13;;;;;;;1.52;1.23;;;1.30;99.90;;;;;;5002840;28;20040;-80
2021/11/30 04:00:39;;;;;;;1.60;1.40;;;1.20;99.90;;;;;;5002251;28;20030;-80
2021/11/30 04:03:05;;;;;;;5.97;1.90;;;1.30;99.90;;;;;;4984834;28;20029;-81
2021/11/30 04:05:31;;;;;;;1.77;1.27;;;1.20;99.90;;;;;;5001686;28;20019;-81
2021/11/30 04:07:57;;;;;;;2.83;1.33;;;1.30;99.90;;;;;;5002091;28;20029;-81
2021/11/30 04:10:23;;;;;;;2.83;1.30;;;1.40;99.90;;;;;;4987213;28;20114;-79
2021/11/30 04:12:50;;;;;;;2.60;1.40;;;1.30;99.90;;;;;;5004065;28;20038;-79
2021/11/30 04:15:16;;;;;;;2.13;1.40;;;1.40;99.90;;;;;;4984635;28;20057;-80
2021/11/30 04:17:42;;;;;;;3.03;1.40;;;1.40;99.90;;;;;;5003544;28;20022;-80
2021/11/30 04:20:10;;;;;;;3.80;1.92;;;1.40;99.90;;;;;;5002960;28;20070;-80
2021/11/30 04:22:36;;;;;;;1.45;1.35;;;1.40;99.90;;;;;;5003752;28;20128;-80
2021/11/30 04:25:07;;;;;;;1.40;1.30;;;1.40;99.90;;;;;;5016264;28;20029;-81
2021/11/30 04:27:33;;;;;;;1.25;1.15;;;1.30;99.90;;;;;;4990197;28;20029;-79
2021/11/30 04:29:59;;;;;;;1.70;1.60;;;1.40;99.90;;;;;;5020539;28;20022;-80
2021/11/30 04:32:25;;;;;;;3.45;2.15;;;1.30;99.90;;;;;;5006389;28;20046;-79
2021/11/30 04:34:51;;;;;;;4.57;1.70;;;1.30;99.90;;;;;;4993251;28;20041;-80
2021/11/30 04:37:17;;;;;;;2.50;1.50;;;1.40;99.90;;;;;;4984315;28;20120;-81
2021/11/30 04:39:43;;;;;;;4.00;1.48;;;1.40;99.90;;;;;;4984112;28;20392;-81
2021/11/30 04:42:09;;;;;;;5.05;1.70;;;1.40;99.90;;;;;;4999317;28;20026;-81
2021/11/30 04:44:37;;;;;;;2.03;1.33;;;1.30;99.90;;;;;;4984116;28;20107;-81
2021/11/30 04:47:09;;;;;;;1.95;1.02;;;1.30;99.90;;;;;;5002278;28;20090;-81
2021/11/30 04:52:03;;;;;;;2.42;1.42;;;1.40;99.90;;;;;;5001399;28;20046;-81
2021/11/30 04:54:28;;;;;;;2.15;1.40;;;1.40;99.90;;;;;;5009255;28;20022;-81
2021/11/30 04:56:54;;;;;;;3.47;1.27;;;1.30;99.90;;;;;;4990176;28;20035;-80
2021/11/30 04:59:21;;;;;;;1.90;1.38;;;1.30;99.80;;;;;;5001213;28;20026;-80
2021/11/30 05:01:48;;;;;;;2.25;1.48;;;1.40;99.60;;;;;;4984542;28;20050;-79
2021/11/30 05:04:14;;;;;;;2.30;1.50;;;1.40;99.10;;;;;;5008551;28;20034;-79
2021/11/30 05:06:40;;;;;;;1.75;1.63;;;1.40;98.80;;;;;;5007754;28;20026;-81
2021/11/30 05:09:07;;;;;;;2.08;1.40;;;1.40;98.90;;;;;;5007649;28;20499;-80
2021/11/30 05:11:33;;;;;;;2.05;1.60;;;1.50;98.30;;;;;;4989033;28;20537;-80
2021/11/30 05:13:59;;;;;;;3.08;1.52;;;1.50;98.30;;;;;;4986307;28;20022;-80
2021/11/30 05:16:26;;;;;;;1.40;1.30;;;1.40;98.50;;;;;;4985904;28;20041;-82
2021/11/30 05:18:51;;;;;;;2.35;1.40;;;1.40;98.20;;;;;;5007530;28;20084;-80
2021/11/30 05:21:17;;;;;;;1.33;1.23;;;1.50;97.80;;;;;;5002835;28;20443;-81
2021/11/30 05:23:43;;;;;;;4.15;1.60;;;1.50;97.50;;;;;;5006198;28;20027;-80
2021/11/30 05:26:09;;;;;;;3.63;1.55;;;1.40;97.50;;;;;;5019243;28;20100;-79
2021/11/30 05:28:38;;;;;;;2.55;1.25;;;1.40;97.80;;;;;;5019328;28;20041;-80
2021/11/30 05:31:05;;;;;;;2.90;1.40;;;1.40;97.40;;;;;;5002866;28;20053;-82
2021/11/30 05:33:31;;;;;;;4.05;1.48;;;1.40;97.50;;;;;;5000817;28;20123;-76
2021/11/30 05:35:58;;;;;;;4.53;1.40;;;1.40;97.20;;;;;;5002640;28;20054;-80
2021/11/30 05:38:25;;;;;;;2.78;1.02;;;1.40;97.70;;;;;;5021194;28;20018;-79
2021/11/30 05:40:51;;;;;;;1.58;1.30;;;1.40;97.20;;;;;;4993169;28;20386;-78
2021/11/30 05:43:17;;;;;;;1.90;1.02;;;1.50;96.60;;;;;;5010530;28;20023;-81
2021/11/30 05:45:44;;;;;;;5.80;2.17;;;1.40;96.20;;;;;;5011123;28;20031;-79
2021/11/30 05:48:10;;;;;;;2.08;1.13;;;1.50;96.30;;;;;;4994957;28;20030;-79
2021/11/30 05:50:36;;;;;;;3.60;1.30;;;1.40;96.30;;;;;;5012435;28;20045;-79
2021/11/30 05:53:03;;;;;;;5.47;1.65;;;1.40;96.40;;;;;;5015198;28;20116;-80
2021/11/30 05:55:29;;;;;;;5.25;1.75;;;1.40;96.50;;;;;;5023740;28;20149;-80
2021/11/30 05:57:55;;;;;;;3.15;1.58;;;1.40;96.20;;;;;;5032716;28;20093;-79
2021/11/30 06:00:22;;;;;;;2.70;1.60;;;1.30;96.20;;;;;;5034434;28;20030;-79
2021/11/30 06:05:17;;;;;;;8.65;1.92;;;1.30;97.10;;;;;;4999892;28;20030;-76
2021/11/30 06:07:43;;;;;;;3.85;1.80;;;1.40;97.90;;;;;;5004976;28;20567;-80
2021/11/30 06:10:09;;;;;;;5.63;1.35;;;1.60;97.20;;;;;;5016272;28;20058;-80
2021/11/30 06:12:34;;;;;;;4.40;1.25;;;1.70;95.40;;;;;;5016518;28;20053;-79
2021/11/30 06:15:00;;;;;;;3.50;1.80;;;1.60;95.30;;;;;;4999470;28;20035;-80
2021/11/30 06:17:26;;;;;;;3.15;1.58;;;1.50;95.20;;;;;;5015968;28;20017;-80
2021/11/30 06:19:52;;;;;;;4.72;1.60;;;1.50;95.30;;;;;;5010992;28;20041;-80
2021/11/30 06:22:17;;;;;;;8.05;2.00;;;1.40;95.40;;;;;;4994500;28;20050;-79
2021/11/30 06:24:43;;;;;;;3.17;1.60;;;1.30;95.60;;;;;;5021033;28;20026;-78
2021/11/30 06:27:09;;;;;;;2.28;1.50;;;1.30;95.60;;;;;;5008612;28;20033;-78
2021/11/30 06:29:35;;;;;;;1.60;1.40;;;1.30;95.90;;;;;;5033053;28;20034;-79
2021/11/30 06:32:00;;;;;;;3.65;1.70;;;1.30;95.60;;;;;;5032583;28;20034;-79
2021/11/30 06:34:26;;;;;;;2.92;1.42;;;1.30;95.30;;;;;;5011512;28;20037;-79
2021/11/30 06:36:52;;;;;;;4.85;2.13;;;1.30;95.40;;;;;;5011382;28;20030;-79
2021/11/30 06:39:17;;;;;;;5.22;1.80;;;1.30;95.40;;;;;;5011404;28;20023;-79
2021/11/30 06:41:43;;;;;;;3.40;1.83;;;1.30;95.30;;;;;;5011198;28;20033;-80
2021/11/30 06:44:09;;;;;;;6.35;1.80;;;1.40;94.80;;;;;;5010678;28;20110;-78
2021/11/30 06:46:35;;;;;;;4.97;1.63;;;1.40;95.60;;;;;;5010969;28;20022;-79
2021/11/30 06:49:00;;;;;;;5.43;1.95;;;1.40;95.30;;;;;;5010410;28;20033;-78
2021/11/30 06:51:26;;;;;;;4.70;1.73;;;1.40;95.00;;;;;;5008371;28;20026;-80
2021/11/30 06:53:52;;;;;;;8.52;1.85;;;1.50;94.80;;;;;;5009706;28;20022;-80
2021/11/30 06:56:18;;;;;;;5.00;1.73;;;1.50;94.60;;;;;;5015334;28;20030;-80
2021/11/30 06:58:43;;;;;;;3.90;2.13;;;1.50;94.70;;;;;;5030300;28;20045;-81
2021/11/30 07:01:12;;;;;;;3.42;1.65;;;1.50;94.80;;;;;;5031405;28;20089;-79
2021/11/30 07:03:38;;;;;;;5.80;1.75;;;1.50;94.50;;;;;;5013386;28;20042;-79
2021/11/30 07:06:58;;;;;;;2.45;1.40;;;1.60;94.50;;;;;;5009499;28;20029;-82
2021/11/30 07:08:54;;;;;;;2.45;1.48;;;1.50;94.60;;;;;;4969433;28;20069;-79
2021/11/30 07:11:46;;;;;;;2.13;1.40;;;1.60;94.40;;;;;;4982954;28;20533;-80
2021/11/30 07:14:09;;;;;;;3.80;1.55;;;1.60;93.80;;;;;;4985226;28;20042;-79
2021/11/30 07:16:35;;;;;;;5.45;1.60;;;1.70;93.60;;;;;;4972822;28;20030;-79
2021/11/30 07:19:02;;;;;;;2.80;1.40;;;1.70;93.50;;;;;;4972874;28;20035;-78
2021/11/30 07:21:28;;;;;;;2.35;1.60;;;1.80;93.20;;;;;;4991398;28;20051;-79
2021/11/30 07:23:55;;;;;;;2.80;1.30;;;1.80;93.30;;;;;;5000271;28;20037;-80
2021/11/30 07:26:21;;;;;;;2.40;1.35;;;1.80;93.20;;;;;;5000662;28;20030;-78
2021/11/30 07:28:47;;;;;;;3.13;1.52;;;1.90;92.60;;;;;;5011212;28;20098;-79
2021/11/30 07:31:15;;;;;;;6.03;1.83;;;2.00;92.00;;;;;;5009465;28;20029;-79
2021/11/30 07:33:47;;;;;;;3.90;1.58;;;2.00;91.80;;;;;;5012100;28;20030;-81
2021/11/30 07:36:15;;;;;;;1.42;1.13;;;2.00;91.60;;;;;;5016419;28;20023;-80
2021/11/30 07:38:42;;;;;;;1.83;1.23;;;2.00;91.50;;;;;;5016577;28;20030;-80
2021/11/30 07:41:09;;;;;;;5.22;2.10;;;2.00;91.40;;;;;;5016440;28;20046;-80
2021/11/30 07:43:35;;;;;;;2.95;1.30;;;2.00;91.20;;;;;;5016836;28;20018;-81
2021/11/30 07:46:01;;;;;;;4.22;1.13;;;2.00;91.30;;;;;;5016189;28;20014;-81
2021/11/30 07:48:28;;;;;;;2.35;1.25;;;2.00;91.30;;;;;;5000580;28;20078;-79
2021/11/30 07:50:56;;;;;;;2.92;1.13;;;2.10;91.00;;;;;;5019471;28;20041;-79
2021/11/30 07:53:22;;;;;;;3.70;1.30;;;2.10;91.00;;;;;;5017231;28;20022;-81
2021/11/30 07:55:49;;;;;;;2.42;1.27;;;2.10;91.40;;;;;;5017502;28;20018;-80
2021/11/30 07:58:15;;;;;;;1.63;1.17;;;2.10;91.70;;;;;;5001693;28;20083;-78
2021/11/30 08:00:41;;;;;;;5.93;1.10;;;2.10;92.30;;;;;;5019301;28;20092;-79
2021/11/30 08:03:07;;;;;;;5.18;1.35;;;2.20;92.10;;;;;;4999912;28;20030;-80
2021/11/30 08:05:33;;;;;;;1.83;1.27;;;2.30;92.10;;;;;;5017358;28;20030;-78
2021/11/30 08:08:02;;;;;;;2.88;1.00;;;2.20;92.20;;;;;;5017575;28;20014;-80
2021/11/30 08:10:29;;;;;;;3.78;1.33;;;2.20;92.80;;;;;;5019049;28;20053;-77
2021/11/30 08:12:56;;;;;;;2.13;1.40;;;2.00;93.20;;;;;;5002137;28;20038;-78
2021/11/30 08:15:22;;;;;;;2.47;1.20;;;2.00;93.90;;;;;;5018948;28;20231;-79
2021/11/30 08:17:47;;;;;;;2.33;1.00;;;2.00;93.90;;;;;;5001025;28;20034;-79
2021/11/30 08:20:14;;;;;;;4.00;1.35;;;2.00;93.70;;;;;;5000802;28;20027;-77
2021/11/30 08:22:40;;;;;;;1.73;0.98;;;2.00;93.40;;;;;;4999149;28;20049;-79
2021/11/30 08:25:07;;;;;;;6.35;2.38;;;2.00;93.20;;;;;;5022088;28;20035;-80
2021/11/30 08:27:33;;;;;;;3.50;0.80;;;2.00;93.10;;;;;;5010483;28;20026;-80
2021/11/30 08:30:00;;;;;;;0.70;0.68;;;2.00;92.20;;;;;;5021349;28;20045;-76
2021/11/30 08:32:28;;;;;;;1.80;1.10;;;2.10;92.10;;;;;;5013613;28;20030;-81
2021/11/30 08:34:55;;;;;;;3.35;1.27;;;2.20;91.70;;;;;;5016703;28;20006;-80
2021/11/30 08:37:22;;;;;;;2.25;1.10;;;2.30;91.30;;;;;;4999780;28;20042;-80
2021/11/30 08:39:51;;;;;;;1.63;1.20;;;2.30;91.00;;;;;;4999287;28;20031;-79
2021/11/30 08:42:18;;;;;;;2.08;1.33;;;2.20;91.00;;;;;;5015202;28;20026;-79
2021/11/30 08:44:45;;;;;;;5.13;1.63;;;2.20;91.10;;;;;;5014788;28;20030;-79
2021/11/30 08:47:13;;;;;;;1.90;1.13;;;2.20;91.40;;;;;;5012955;28;20022;-79
2021/11/30 08:49:40;;;;;;;3.55;1.27;;;2.10;91.80;;;;;;5012930;28;20022;-79
2021/11/30 08:52:11;;;;;;;4.15;1.20;;;2.10;92.30;;;;;;4995103;28;20041;-80
2021/11/30 08:54:37;;;;;;;7.18;1.42;;;2.20;92.20;;;;;;5002927;28;20022;-82
2021/11/30 08:57:04;;;;;;;3.10;1.30;;;2.10;92.50;;;;;;5001567;28;20069;-79
2021/11/30 08:59:30;;;;;;;5.40;3.10;;;2.10;93.00;;;;;;5013402;28;20030;-79
2021/11/30 09:01:57;;;;;;;4.78;2.20;;;1.90;93.90;;;;;;5007045;28;20034;-79
2021/11/30 09:04:22;;;;;;;2.58;1.58;;;1.90;94.80;;;;;;5010596;28;20026;-82
2021/11/30 09:06:48;;;;;;;3.50;1.23;;;1.80;95.60;;;;;;5011348;28;20022;-80
2021/11/30 09:09:14;;;;;;;2.97;1.50;;;1.70;96.00;;;;;;5011757;28;20534;-79
2021/11/30 09:11:41;;;;;;;6.22;1.33;;;1.60;97.00;;;;;;5032994;23;20050;-84
2021/11/30 09:14:08;;;;;;;3.42;1.27;;;1.40;97.90;;;;;;5019529;28;20429;-85
2021/11/30 09:16:35;;;;;;;3.08;1.08;;;1.30;98.90;;;;;;5019428;28;20049;-85
2021/11/30 09:19:01;;;;;;;2.08;1.27;;;1.20;99.50;;;;;;5003717;28;20029;-86
2021/11/30 09:21:27;;;;;;;2.00;1.27;;;1.30;99.90;;;;;;5037247;28;20132;-85
2021/11/30 09:23:55;;;;;;;3.40;1.17;;;1.30;99.90;;;;;;5019397;28;20330;-84
2021/11/30 09:26:21;;;;;;;2.80;1.27;;;1.30;99.90;;;;;;5040310;28;20112;-83
2021/11/30 09:28:47;;;;;;;2.45;1.00;;;1.30;99.90;;;;;;5056288;28;20030;-83
2021/11/30 09:31:14;;;;;;;1.67;0.93;;;1.30;99.90;;;;;;5026527;28;20108;-83
2021/11/30 09:33:41;;;;;;;2.75;1.10;;;1.20;99.90;;;;;;5038932;28;20478;-84
2021/11/30 09:36:09;;;;;;;2.80;0.80;;;1.20;99.90;;;;;;5015045;28;20033;-84
2021/11/30 09:38:35;;;;;;;1.27;0.82;;;1.20;99.90;;;;;;5000620;28;20025;-84
2021/11/30 09:41:02;;;;;;;3.05;0.70;;;1.20;99.90;;;;;;5018565;28;20117;-86
2021/11/30 09:43:31;;;;;;;2.55;0.63;;;1.20;99.90;;;;;;5018967;28;20024;-86
2021/11/30 09:45:57;;;;;;;4.13;1.02;;;1.20;99.90;;;;;;5017816;28;20488;-85
2021/11/30 09:48:24;;;;;;;1.95;0.88;;;1.20;99.90;;;;;;5028085;28;20026;-84
2021/11/30 09:50:50;;;;;;;1.50;0.50;;;1.20;99.90;;;;;;5019386;28;20079;-84
2021/11/30 09:53:25;;;;;;;5.78;0.93;;;1.20;99.90;;;;;;5018577;28;20085;-82
2021/11/30 09:55:51;;;;;;;4.38;1.50;;;1.20;99.90;;;;;;5013226;28;20041;-84
2021/11/30 09:58:19;;;;;;;4.75;0.90;;;1.10;99.90;;;;;;5018600;28;20083;-84
2021/11/30 10:00:47;;;;;;;4.32;0.90;;;1.20;99.90;;;;;;5003677;28;20033;-84
2021/11/30 10:03:14;;;;;;;2.70;0.90;;;1.20;99.90;;;;;;5004765;28;20029;-85
2021/11/30 10:05:41;;;;;;;3.35;1.52;;;1.30;99.90;;;;;;5021635;28;20014;-85
2021/11/30 10:08:22;;;;;;;1.77;0.93;;;1.30;99.90;;;;;;5000214;28;20029;-84
2021/11/30 10:10:48;;;;;;;1.75;0.80;;;1.30;99.90;;;;;;5009483;28;20026;-84
2021/11/30 10:13:14;;;;;;;2.72;0.80;;;1.30;99.90;;;;;;5002013;28;20030;-84
2021/11/30 10:15:46;;;;;;;4.60;0.90;;;1.30;99.90;;;;;;5002639;28;20465;-85
2021/11/30 10:18:28;;;;;;;1.00;0.45;;;1.30;99.90;;;;;;4999888;28;20033;-84
2021/11/30 10:21:09;;;;;;;1.05;0.88;;;1.40;99.90;;;;;;5002351;28;20033;-84
2021/11/30 10:24:05;;;;;;;2.42;0.98;;;1.40;99.90;;;;;;5030265;28;20100;-84
2021/11/30 10:26:36;;;;;;;1.67;1.15;;;1.40;99.90;;;;;;5020914;28;20038;-85
2021/11/30 10:29:07;;;;;;;2.25;1.02;;;1.40;99.90;;;;;;5043856;28;20537;-84
2021/11/30 10:31:45;;;;;;;0.68;0.40;;;1.40;99.90;;;;;;5029838;28;20021;-83
2021/11/30 10:34:17;;;;;;;5.72;0.63;;;1.40;99.90;;;;;;5037239;28;20072;-84
2021/11/30 10:36:48;;;;;;;2.80;0.50;;;1.40;99.90;;;;;;5055691;28;20053;-83
2021/11/30 10:39:24;;;;;;;2.53;0.70;;;1.50;99.90;;;;;;5056628;28;20083;-83
2021/11/30 10:41:52;;;;;;;1.33;0.82;;;1.50;99.90;;;;;;5055104;28;20022;-85
2021/11/30 10:44:31;;;;;;;3.50;0.90;;;1.50;99.90;;;;;;5053193;28;20010;-83
2021/11/30 10:47:27;;;;;;;1.02;0.50;;;1.60;99.90;;;;;;5053389;28;20089;-85
2021/11/30 10:49:56;;;;;;;2.30;0.55;;;1.60;99.90;;;;;;5018990;28;20017;-84
2021/11/30 10:52:30;;;;;;;1.30;0.60;;;1.60;99.90;;;;;;5054899;28;20026;-82
2021/11/30 10:55:13;;;;;;;3.30;0.65;;;1.60;99.90;;;;;;5029713;28;20014;-82
2021/11/30 10:57:39;;;;;;;1.13;0.40;;;1.60;99.90;;;;;;5055810;28;20016;-83
2021/11/30 11:00:20;;;;;;;1.85;0.65;;;1.60;99.90;;;;;;5056257;28;20041;-82
2021/11/30 11:03:01;;;;;;;1.02;0.52;;;1.60;99.90;;;;;;5037370;28;20058;-84
2021/11/30 11:05:31;;;;;;;1.60;0.52;;;1.70;99.90;;;;;;5033672;28;20089;-84
2021/11/30 11:08:07;;;;;;;2.85;0.50;;;1.70;99.90;;;;;;5030989;28;20029;-84
2021/11/30 11:10:35;;;;;;;2.72;0.60;;;1.70;99.90;;;;;;5056720;28;20022;-83
2021/11/30 11:13:19;;;;;;;2.55;0.80;;;1.70;99.90;;;;;;5049474;28;20093;-85
2021/11/30 11:15:45;;;;;;;2.83;0.90;;;1.70;99.90;;;;;;5019404;28;20035;-83
2021/11/30 11:18:18;;;;;;;1.67;0.45;;;1.80;99.90;;;;;;5007842;28;20104;-85
2021/11/30 11:20:45;;;;;;;1.35;0.60;;;1.80;99.90;;;;;;5006033;28;20054;-85
2021/11/30 11:23:25;;;;;;;0.88;0.68;;;1.80;99.90;;;;;;5010752;28;20036;-84
2021/11/30 11:25:53;;;;;;;0.55;0.55;;;1.80;99.90;;;;;;5018227;28;20032;-84
2021/11/30 11:28:22;;;;;;;1.50;0.70;;;1.80;99.90;;;;;;5024626;28;20532;-84
2021/11/30 11:30:50;;;;;;;1.13;0.50;;;1.80;99.90;;;;;;5024408;28;20120;-84
2021/11/30 11:33:16;;;;;;;1.20;0.60;;;1.90;99.90;;;;;;5029968;28;20033;-84
2021/11/30 11:35:43;;;;;;;1.77;1.30;;;1.90;99.90;;;;;;5004517;28;20030;-82
2021/11/30 11:38:10;;;;;;;0.70;0.38;;;1.90;99.90;;;;;;5019204;28;20129;-85
2021/11/30 11:40:36;;;;;;;0.98;0.60;;;1.90;99.90;;;;;;5020250;28;20490;-86
2021/11/30 11:43:03;;;;;;;0.90;0.60;;;1.90;99.90;;;;;;5000706;28;20040;-86
2021/11/30 11:45:28;;;;;;;1.83;0.70;;;1.90;99.90;;;;;;5006438;28;20018;-86
2021/11/30 11:48:03;;;;;;;0.55;0.55;;;2.00;99.90;;;;;;5025287;28;20033;-85
2021/11/30 11:50:50;;;;;;;0.95;0.55;;;2.00;99.90;;;;;;5019236;28;20017;-85
2021/11/30 11:53:27;;;;;;;0.73;0.60;;;2.00;99.90;;;;;;5023267;28;20014;-87
2021/11/30 11:56:23;;;;;;;0.75;0.57;;;1.90;99.90;;;;;;5006063;28;20026;-82
2021/11/30 11:59:13;;;;;;;2.63;0.85;;;1.90;99.90;;;;;;5022472;28;20024;-81
2021/11/30 12:01:43;;;;;;;1.23;0.85;;;1.90;99.90;;;;;;5021449;28;20049;-83
2021/11/30 12:04:14;;;;;;;1.92;0.90;;;1.90;99.90;;;;;;5020690;28;20097;-84
2021/11/30 12:06:56;;;;;;;1.10;0.60;;;1.90;99.90;;;;;;5024227;28;20029;-86
2021/11/30 12:09:42;;;;;;;1.35;0.68;;;2.00;99.90;;;;;;5042030;28;20022;-87
2021/11/30 12:12:10;;;;;;;1.35;0.70;;;2.10;99.90;;;;;;5021423;28;20045;-86
2021/11/30 12:14:39;;;;;;;0.98;0.50;;;2.10;99.90;;;;;;5005384;28;20041;-85
2021/11/30 12:17:16;;;;;;;3.00;0.32;;;2.20;99.90;;;;;;5019483;28;20159;-85
2021/11/30 12:19:49;;;;;;;1.73;0.60;;;2.20;99.90;;;;;;5021750;28;20361;-85
2021/11/30 12:22:40;;;;;;;4.35;0.75;;;2.20;99.90;;;;;;5020860;28;20056;-86
2021/11/30 12:25:06;;;;;;;0.93;0.50;;;2.30;99.90;;;;;;5029487;28;20112;-85
2021/11/30 12:27:39;;;;;;;2.13;0.60;;;2.40;99.90;;;;;;5027401;28;20050;-87
2021/11/30 12:30:05;;;;;;;;;;;2.40;99.90;;;;;;5011168;28;20026;-85
2021/11/30 12:32:34;;;;;;;1.67;0.73;;;2.40;99.90;;;;;;5030836;28;19910;-86
2021/11/30 12:35:07;;;;;;;0.57;0.55;;;2.30;99.90;;;;;;5033040;28;20053;-86
2021/11/30 12:37:34;;;;;;;3.05;0.50;;;2.30;99.90;;;;;;5023021;28;20022;-85
2021/11/30 12:40:03;;;;;;;0.70;0.60;;;2.20;99.90;;;;;;5019067;28;20367;-85
2021/11/30 12:42:29;;;;;;;2.08;0.68;;;2.20;99.90;;;;;;5021224;28;20025;-86
2021/11/30 12:45:33;;;;;;;0.98;0.60;;;2.10;99.90;;;;;;5023084;28;20022;-86
2021/11/30 12:48:25;;;;;;;3.20;0.60;;;2.10;99.90;;;;;;5025999;28;20085;-85
2021/11/30 12:51:14;;;;;;;2.10;0.60;;;2.10;99.90;;;;;;5028879;28;20025;-85
2021/11/30 12:53:42;;;;;;;0.73;0.40;;;2.00;99.90;;;;;;5022663;28;20057;-86
2021/11/30 12:56:09;;;;;;;2.13;0.40;;;2.00;99.90;;;;;;5000573;28;20038;-87
2021/11/30 12:58:47;;;;;;;2.10;0.60;;;2.00;99.90;;;;;;4999467;28;20046;-86
2021/11/30 13:01:15;;;;;;;1.98;0.93;;;2.00;99.90;;;;;;5015110;28;20022;-87
2021/11/30 13:03:41;;;;;;;2.03;0.68;;;2.00;99.90;;;;;;5017215;28;20084;-87
2021/11/30 13:06:07;;;;;;;1.48;0.50;;;2.00;99.90;;;;;;4999642;28;20030;-86
2021/11/30 13:09:04;;;;;;;1.15;0.70;;;2.00;99.90;;;;;;4999274;28;20089;-87
2021/11/30 13:11:31;;;;;;;1.75;0.73;;;2.00;99.90;;;;;;5000750;28;20068;-85
2021/11/30 13:14:00;;;;;;;5.35;0.75;;;2.00;99.90;;;;;;5041909;28;20029;-84
2021/11/30 13:16:27;;;;;;;1.73;0.70;;;2.00;99.90;;;;;;5014761;28;20084;-86
2021/11/30 13:19:02;;;;;;;0.93;0.60;;;2.00;99.90;;;;;;5017842;28;20040;-87